sensor_id;sensor_type;location;lat;lon;timestamp;P1;durP1;ratioP1;P2;durP2;ratioP2
55758;SDS011;41678;52.126;20.664;2023-06-22T00:00:56;27.50;;;17.17;;
55758;SDS011;41678;52.126;20.664;2023-06-22T00:06:16;27.83;;;17.85;;
55758;SDS011;41678;52.126;20.664;2023-06-22T00:11:37;30.50;;;19.05;;
55758;SDS011;41678;52.126;20.664;2023-06-22T00:17:03;24.42;;;17.15;;
55758;SDS011;41678;52.126;20.664;2023-06-22T00:22:23;23.80;;;17.38;;
55758;SDS011;41678;52.126;20.664;2023-06-22T00:27:48;22.88;;;17.27;;
55758;SDS011;41678;52.126;20.664;2023-06-22T00:33:08;23.30;;;17.88;;
55758;SDS011;41678;52.126;20.664;2023-06-22T00:38:28;23.67;;;17.58;;
55758;SDS011;41678;52.126;20.664;2023-06-22T00:43:48;25.88;;;17.58;;
55758;SDS011;41678;52.126;20.664;2023-06-22T00:49:08;28.63;;;18.95;;
55758;SDS011;41678;52.126;20.664;2023-06-22T00:54:28;26.52;;;19.95;;
55758;SDS011;41678;52.126;20.664;2023-06-22T00:59:48;26.33;;;19.10;;
55758;SDS011;41678;52.126;20.664;2023-06-22T01:05:08;27.67;;;19.17;;
55758;SDS011;41678;52.126;20.664;2023-06-22T01:16:15;27.10;;;18.85;;
55758;SDS011;41678;52.126;20.664;2023-06-22T01:21:39;26.95;;;20.23;;
55758;SDS011;41678;52.126;20.664;2023-06-22T01:27:05;29.33;;;19.92;;
55758;SDS011;41678;52.126;20.664;2023-06-22T01:32:40;27.83;;;20.55;;
55758;SDS011;41678;52.126;20.664;2023-06-22T01:38:01;30.90;;;20.23;;
55758;SDS011;41678;52.126;20.664;2023-06-22T01:43:21;28.10;;;18.90;;
55758;SDS011;41678;52.126;20.664;2023-06-22T01:48:43;28.90;;;21.35;;
55758;SDS011;41678;52.126;20.664;2023-06-22T01:54:03;30.03;;;20.23;;
55758;SDS011;41678;52.126;20.664;2023-06-22T01:59:28;34.35;;;22.33;;
55758;SDS011;41678;52.126;20.664;2023-06-22T02:10:19;32.50;;;24.60;;
55758;SDS011;41678;52.126;20.664;2023-06-22T02:15:40;35.53;;;25.17;;
55758;SDS011;41678;52.126;20.664;2023-06-22T02:21:00;39.15;;;24.73;;
55758;SDS011;41678;52.126;20.664;2023-06-22T02:26:19;38.45;;;26.02;;
55758;SDS011;41678;52.126;20.664;2023-06-22T02:31:39;37.28;;;26.33;;
55758;SDS011;41678;52.126;20.664;2023-06-22T02:37:00;47.92;;;29.33;;
55758;SDS011;41678;52.126;20.664;2023-06-22T02:42:20;37.80;;;26.97;;
55758;SDS011;41678;52.126;20.664;2023-06-22T02:47:42;36.25;;;27.00;;
55758;SDS011;41678;52.126;20.664;2023-06-22T02:53:02;46.92;;;28.45;;
55758;SDS011;41678;52.126;20.664;2023-06-22T02:58:26;38.70;;;25.65;;
55758;SDS011;41678;52.126;20.664;2023-06-22T03:03:46;38.30;;;23.95;;
55758;SDS011;41678;52.126;20.664;2023-06-22T03:09:06;39.63;;;24.13;;
55758;SDS011;41678;52.126;20.664;2023-06-22T03:14:27;40.95;;;26.23;;
55758;SDS011;41678;52.126;20.664;2023-06-22T03:19:47;38.85;;;24.95;;
55758;SDS011;41678;52.126;20.664;2023-06-22T03:25:07;40.42;;;25.27;;
55758;SDS011;41678;52.126;20.664;2023-06-22T03:30:34;35.90;;;23.63;;
55758;SDS011;41678;52.126;20.664;2023-06-22T03:35:54;36.60;;;23.85;;
55758;SDS011;41678;52.126;20.664;2023-06-22T03:41:14;31.15;;;22.55;;
55758;SDS011;41678;52.126;20.664;2023-06-22T03:46:34;36.73;;;24.27;;
55758;SDS011;41678;52.126;20.664;2023-06-22T03:51:54;35.15;;;24.05;;
55758;SDS011;41678;52.126;20.664;2023-06-22T03:57:13;33.85;;;21.70;;
55758;SDS011;41678;52.126;20.664;2023-06-22T04:02:33;37.25;;;23.70;;
55758;SDS011;41678;52.126;20.664;2023-06-22T04:07:52;29.80;;;19.92;;
55758;SDS011;41678;52.126;20.664;2023-06-22T04:13:12;31.05;;;20.70;;
55758;SDS011;41678;52.126;20.664;2023-06-22T04:18:31;33.38;;;19.25;;
55758;SDS011;41678;52.126;20.664;2023-06-22T04:23:51;25.75;;;17.05;;
55758;SDS011;41678;52.126;20.664;2023-06-22T04:29:10;32.20;;;19.15;;
55758;SDS011;41678;52.126;20.664;2023-06-22T04:39:51;27.20;;;15.73;;
55758;SDS011;41678;52.126;20.664;2023-06-22T04:45:11;30.65;;;17.55;;
55758;SDS011;41678;52.126;20.664;2023-06-22T04:50:32;26.95;;;16.33;;
55758;SDS011;41678;52.126;20.664;2023-06-22T04:55:52;24.15;;;15.88;;
55758;SDS011;41678;52.126;20.664;2023-06-22T05:01:12;23.38;;;16.10;;
55758;SDS011;41678;52.126;20.664;2023-06-22T05:06:32;22.33;;;15.55;;
55758;SDS011;41678;52.126;20.664;2023-06-22T05:11:52;27.63;;;15.63;;
55758;SDS011;41678;52.126;20.664;2023-06-22T05:17:12;26.70;;;15.27;;
55758;SDS011;41678;52.126;20.664;2023-06-22T05:22:32;19.40;;;13.32;;
55758;SDS011;41678;52.126;20.664;2023-06-22T05:27:52;26.60;;;14.77;;
55758;SDS011;41678;52.126;20.664;2023-06-22T05:33:12;23.85;;;13.55;;
55758;SDS011;41678;52.126;20.664;2023-06-22T05:38:32;21.27;;;13.30;;
55758;SDS011;41678;52.126;20.664;2023-06-22T05:43:51;19.20;;;12.30;;
55758;SDS011;41678;52.126;20.664;2023-06-22T05:49:11;24.17;;;13.45;;
55758;SDS011;41678;52.126;20.664;2023-06-22T05:54:32;23.60;;;13.38;;
55758;SDS011;41678;52.126;20.664;2023-06-22T05:59:52;23.17;;;12.60;;
55758;SDS011;41678;52.126;20.664;2023-06-22T06:05:12;23.47;;;12.17;;
55758;SDS011;41678;52.126;20.664;2023-06-22T06:10:35;17.63;;;11.55;;
55758;SDS011;41678;52.126;20.664;2023-06-22T06:15:56;16.15;;;10.98;;
55758;SDS011;41678;52.126;20.664;2023-06-22T06:21:16;17.55;;;11.52;;
55758;SDS011;41678;52.126;20.664;2023-06-22T06:26:36;14.73;;;9.68;;
55758;SDS011;41678;52.126;20.664;2023-06-22T06:31:55;19.67;;;9.00;;
55758;SDS011;41678;52.126;20.664;2023-06-22T06:37:16;15.60;;;8.97;;
55758;SDS011;41678;52.126;20.664;2023-06-22T06:42:37;20.38;;;8.75;;
55758;SDS011;41678;52.126;20.664;2023-06-22T06:48:01;12.20;;;7.15;;
55758;SDS011;41678;52.126;20.664;2023-06-22T06:53:20;15.60;;;7.60;;
55758;SDS011;41678;52.126;20.664;2023-06-22T06:58:40;19.00;;;8.18;;
55758;SDS011;41678;52.126;20.664;2023-06-22T07:04:01;19.73;;;8.23;;
55758;SDS011;41678;52.126;20.664;2023-06-22T07:09:21;21.67;;;9.05;;
55758;SDS011;41678;52.126;20.664;2023-06-22T07:14:41;14.63;;;7.32;;
55758;SDS011;41678;52.126;20.664;2023-06-22T07:20:00;11.43;;;6.25;;
55758;SDS011;41678;52.126;20.664;2023-06-22T07:25:21;18.45;;;6.15;;
55758;SDS011;41678;52.126;20.664;2023-06-22T07:30:41;15.20;;;6.93;;
55758;SDS011;41678;52.126;20.664;2023-06-22T07:36:00;13.20;;;5.53;;
55758;SDS011;41678;52.126;20.664;2023-06-22T07:41:20;11.52;;;4.97;;
55758;SDS011;41678;52.126;20.664;2023-06-22T07:46:39;13.73;;;4.50;;
55758;SDS011;41678;52.126;20.664;2023-06-22T07:51:59;10.32;;;4.55;;
55758;SDS011;41678;52.126;20.664;2023-06-22T08:02:40;7.20;;;3.92;;
55758;SDS011;41678;52.126;20.664;2023-06-22T08:13:20;7.65;;;3.20;;
55758;SDS011;41678;52.126;20.664;2023-06-22T08:18:39;7.78;;;3.60;;
55758;SDS011;41678;52.126;20.664;2023-06-22T08:23:59;6.40;;;2.80;;
55758;SDS011;41678;52.126;20.664;2023-06-22T08:29:19;5.40;;;2.63;;
55758;SDS011;41678;52.126;20.664;2023-06-22T08:34:39;6.68;;;2.80;;
55758;SDS011;41678;52.126;20.664;2023-06-22T08:40:02;8.55;;;3.13;;
55758;SDS011;41678;52.126;20.664;2023-06-22T08:45:28;8.35;;;3.45;;
55758;SDS011;41678;52.126;20.664;2023-06-22T08:50:47;8.90;;;4.32;;
55758;SDS011;41678;52.126;20.664;2023-06-22T08:56:06;8.02;;;3.58;;
55758;SDS011;41678;52.126;20.664;2023-06-22T09:01:26;9.50;;;3.50;;
55758;SDS011;41678;52.126;20.664;2023-06-22T09:06:45;9.35;;;3.35;;
55758;SDS011;41678;52.126;20.664;2023-06-22T09:12:05;10.05;;;2.80;;
55758;SDS011;41678;52.126;20.664;2023-06-22T09:17:25;6.53;;;2.40;;
55758;SDS011;41678;52.126;20.664;2023-06-22T09:22:45;7.47;;;3.03;;
55758;SDS011;41678;52.126;20.664;2023-06-22T09:28:05;6.10;;;2.43;;
55758;SDS011;41678;52.126;20.664;2023-06-22T09:33:25;7.47;;;3.03;;
55758;SDS011;41678;52.126;20.664;2023-06-22T09:38:45;11.25;;;2.78;;
55758;SDS011;41678;52.126;20.664;2023-06-22T09:44:04;6.32;;;2.45;;
55758;SDS011;41678;52.126;20.664;2023-06-22T09:49:24;7.27;;;3.10;;
55758;SDS011;41678;52.126;20.664;2023-06-22T09:54:44;6.18;;;2.88;;
55758;SDS011;41678;52.126;20.664;2023-06-22T10:00:03;9.02;;;2.90;;
55758;SDS011;41678;52.126;20.664;2023-06-22T10:05:25;8.63;;;3.08;;
55758;SDS011;41678;52.126;20.664;2023-06-22T10:10:44;14.33;;;3.10;;
55758;SDS011;41678;52.126;20.664;2023-06-22T10:16:04;7.10;;;2.88;;
55758;SDS011;41678;52.126;20.664;2023-06-22T10:21:24;7.73;;;3.47;;
55758;SDS011;41678;52.126;20.664;2023-06-22T10:26:45;8.65;;;3.28;;
55758;SDS011;41678;52.126;20.664;2023-06-22T10:32:05;8.23;;;3.17;;
55758;SDS011;41678;52.126;20.664;2023-06-22T10:42:45;6.68;;;2.83;;
55758;SDS011;41678;52.126;20.664;2023-06-22T10:48:04;7.10;;;3.03;;
55758;SDS011;41678;52.126;20.664;2023-06-22T10:53:24;8.25;;;3.00;;
55758;SDS011;41678;52.126;20.664;2023-06-22T10:58:44;7.95;;;3.05;;
55758;SDS011;41678;52.126;20.664;2023-06-22T11:04:04;11.55;;;2.97;;
55758;SDS011;41678;52.126;20.664;2023-06-22T11:09:24;10.23;;;3.10;;
55758;SDS011;41678;52.126;20.664;2023-06-22T11:14:43;10.38;;;3.58;;
55758;SDS011;41678;52.126;20.664;2023-06-22T11:20:03;7.40;;;3.38;;
55758;SDS011;41678;52.126;20.664;2023-06-22T11:25:30;10.82;;;3.40;;
55758;SDS011;41678;52.126;20.664;2023-06-22T11:30:49;8.15;;;3.65;;
55758;SDS011;41678;52.126;20.664;2023-06-22T11:36:09;8.70;;;3.22;;
55758;SDS011;41678;52.126;20.664;2023-06-22T11:41:28;7.25;;;3.70;;
55758;SDS011;41678;52.126;20.664;2023-06-22T11:46:48;9.38;;;3.78;;
55758;SDS011;41678;52.126;20.664;2023-06-22T11:52:08;8.00;;;3.63;;
55758;SDS011;41678;52.126;20.664;2023-06-22T11:57:28;9.70;;;3.42;;
55758;SDS011;41678;52.126;20.664;2023-06-22T12:02:47;11.25;;;4.70;;
55758;SDS011;41678;52.126;20.664;2023-06-22T12:08:06;12.45;;;3.38;;
55758;SDS011;41678;52.126;20.664;2023-06-22T12:13:26;7.35;;;3.15;;
55758;SDS011;41678;52.126;20.664;2023-06-22T12:18:46;8.00;;;3.23;;
55758;SDS011;41678;52.126;20.664;2023-06-22T12:24:06;12.57;;;3.47;;
55758;SDS011;41678;52.126;20.664;2023-06-22T12:29:25;6.55;;;2.97;;
55758;SDS011;41678;52.126;20.664;2023-06-22T12:34:45;5.72;;;2.75;;
55758;SDS011;41678;52.126;20.664;2023-06-22T12:40:05;12.15;;;3.17;;
55758;SDS011;41678;52.126;20.664;2023-06-22T12:45:25;11.88;;;3.13;;
55758;SDS011;41678;52.126;20.664;2023-06-22T12:50:48;10.52;;;2.75;;
55758;SDS011;41678;52.126;20.664;2023-06-22T12:56:07;11.65;;;2.90;;
55758;SDS011;41678;52.126;20.664;2023-06-22T13:01:27;14.65;;;2.67;;
55758;SDS011;41678;52.126;20.664;2023-06-22T13:06:48;8.48;;;3.13;;
55758;SDS011;41678;52.126;20.664;2023-06-22T13:12:07;9.40;;;3.13;;
55758;SDS011;41678;52.126;20.664;2023-06-22T13:17:27;6.97;;;3.00;;
55758;SDS011;41678;52.126;20.664;2023-06-22T13:22:47;7.63;;;2.85;;
55758;SDS011;41678;52.126;20.664;2023-06-22T13:28:06;7.55;;;2.90;;
55758;SDS011;41678;52.126;20.664;2023-06-22T13:33:26;5.93;;;3.08;;
55758;SDS011;41678;52.126;20.664;2023-06-22T13:38:46;6.73;;;3.27;;
55758;SDS011;41678;52.126;20.664;2023-06-22T13:44:06;10.43;;;3.63;;
55758;SDS011;41678;52.126;20.664;2023-06-22T13:49:26;8.50;;;3.53;;
55758;SDS011;41678;52.126;20.664;2023-06-22T13:54:45;8.32;;;4.03;;
55758;SDS011;41678;52.126;20.664;2023-06-22T14:00:05;12.30;;;4.57;;
55758;SDS011;41678;52.126;20.664;2023-06-22T14:05:30;6.03;;;3.15;;
55758;SDS011;41678;52.126;20.664;2023-06-22T14:10:50;8.82;;;3.72;;
55758;SDS011;41678;52.126;20.664;2023-06-22T14:16:10;11.88;;;3.90;;
55758;SDS011;41678;52.126;20.664;2023-06-22T14:21:30;7.40;;;3.20;;
55758;SDS011;41678;52.126;20.664;2023-06-22T14:26:50;7.80;;;3.60;;
55758;SDS011;41678;52.126;20.664;2023-06-22T14:32:09;12.35;;;4.40;;
55758;SDS011;41678;52.126;20.664;2023-06-22T14:37:29;13.60;;;3.97;;
55758;SDS011;41678;52.126;20.664;2023-06-22T14:42:49;6.85;;;3.65;;
55758;SDS011;41678;52.126;20.664;2023-06-22T14:48:08;8.07;;;3.97;;
55758;SDS011;41678;52.126;20.664;2023-06-22T14:53:27;10.20;;;3.88;;
55758;SDS011;41678;52.126;20.664;2023-06-22T14:58:47;7.43;;;3.72;;
55758;SDS011;41678;52.126;20.664;2023-06-22T15:04:07;12.35;;;4.05;;
55758;SDS011;41678;52.126;20.664;2023-06-22T15:09:27;9.35;;;4.03;;
55758;SDS011;41678;52.126;20.664;2023-06-22T15:14:46;7.10;;;3.60;;
55758;SDS011;41678;52.126;20.664;2023-06-22T15:20:05;9.27;;;4.40;;
55758;SDS011;41678;52.126;20.664;2023-06-22T15:25:25;5.85;;;3.22;;
55758;SDS011;41678;52.126;20.664;2023-06-22T15:30:45;9.88;;;4.18;;
55758;SDS011;41678;52.126;20.664;2023-06-22T15:36:04;9.68;;;4.05;;
55758;SDS011;41678;52.126;20.664;2023-06-22T15:41:26;7.75;;;4.13;;
55758;SDS011;41678;52.126;20.664;2023-06-22T15:46:47;8.50;;;4.32;;
55758;SDS011;41678;52.126;20.664;2023-06-22T15:52:08;13.30;;;4.57;;
55758;SDS011;41678;52.126;20.664;2023-06-22T15:57:27;8.77;;;4.20;;
55758;SDS011;41678;52.126;20.664;2023-06-22T16:02:48;9.05;;;4.55;;
55758;SDS011;41678;52.126;20.664;2023-06-22T16:08:11;10.88;;;4.53;;
55758;SDS011;41678;52.126;20.664;2023-06-22T16:13:31;9.15;;;4.53;;
55758;SDS011;41678;52.126;20.664;2023-06-22T16:18:51;10.20;;;4.67;;
55758;SDS011;41678;52.126;20.664;2023-06-22T16:24:10;12.00;;;4.32;;
55758;SDS011;41678;52.126;20.664;2023-06-22T16:29:30;9.48;;;4.88;;
55758;SDS011;41678;52.126;20.664;2023-06-22T16:34:49;9.07;;;4.13;;
55758;SDS011;41678;52.126;20.664;2023-06-22T16:40:09;11.32;;;4.43;;
55758;SDS011;41678;52.126;20.664;2023-06-22T16:45:29;9.35;;;4.13;;
55758;SDS011;41678;52.126;20.664;2023-06-22T16:50:51;7.05;;;3.70;;
55758;SDS011;41678;52.126;20.664;2023-06-22T17:02:05;11.43;;;3.53;;
55758;SDS011;41678;52.126;20.664;2023-06-22T17:07:35;7.37;;;3.30;;
55758;SDS011;41678;52.126;20.664;2023-06-22T17:12:58;6.50;;;3.25;;
55758;SDS011;41678;52.126;20.664;2023-06-22T17:18:18;12.35;;;3.50;;
55758;SDS011;41678;52.126;20.664;2023-06-22T17:23:39;7.68;;;3.60;;
55758;SDS011;41678;52.126;20.664;2023-06-22T17:28:59;7.80;;;3.60;;
55758;SDS011;41678;52.126;20.664;2023-06-22T17:34:24;8.52;;;4.18;;
55758;SDS011;41678;52.126;20.664;2023-06-22T17:39:51;10.93;;;4.22;;
55758;SDS011;41678;52.126;20.664;2023-06-22T17:45:16;9.90;;;3.47;;
55758;SDS011;41678;52.126;20.664;2023-06-22T17:50:42;13.83;;;3.20;;
55758;SDS011;41678;52.126;20.664;2023-06-22T17:56:02;12.10;;;3.57;;
55758;SDS011;41678;52.126;20.664;2023-06-22T18:06:48;8.60;;;3.58;;
55758;SDS011;41678;52.126;20.664;2023-06-22T18:12:09;8.68;;;3.60;;
55758;SDS011;41678;52.126;20.664;2023-06-22T18:17:29;9.80;;;4.20;;
55758;SDS011;41678;52.126;20.664;2023-06-22T18:22:49;10.52;;;4.07;;
55758;SDS011;41678;52.126;20.664;2023-06-22T18:28:09;13.82;;;4.38;;
55758;SDS011;41678;52.126;20.664;2023-06-22T18:33:31;10.32;;;4.28;;
55758;SDS011;41678;52.126;20.664;2023-06-22T18:38:52;8.90;;;4.50;;
55758;SDS011;41678;52.126;20.664;2023-06-22T18:44:19;12.18;;;3.95;;
55758;SDS011;41678;52.126;20.664;2023-06-22T18:55:02;9.23;;;4.38;;
55758;SDS011;41678;52.126;20.664;2023-06-22T19:00:29;9.65;;;4.60;;
55758;SDS011;41678;52.126;20.664;2023-06-22T19:05:49;10.77;;;4.50;;
55758;SDS011;41678;52.126;20.664;2023-06-22T19:11:12;10.90;;;4.38;;
55758;SDS011;41678;52.126;20.664;2023-06-22T19:16:32;11.65;;;4.55;;
55758;SDS011;41678;52.126;20.664;2023-06-22T19:21:58;19.00;;;5.60;;
55758;SDS011;41678;52.126;20.664;2023-06-22T19:27:19;13.85;;;4.57;;
55758;SDS011;41678;52.126;20.664;2023-06-22T19:32:39;22.73;;;5.80;;
55758;SDS011;41678;52.126;20.664;2023-06-22T19:37:59;12.15;;;4.65;;
55758;SDS011;41678;52.126;20.664;2023-06-22T19:43:19;16.10;;;5.10;;
55758;SDS011;41678;52.126;20.664;2023-06-22T19:48:39;13.88;;;5.53;;
55758;SDS011;41678;52.126;20.664;2023-06-22T19:54:08;13.90;;;4.90;;
55758;SDS011;41678;52.126;20.664;2023-06-22T19:59:30;13.35;;;5.28;;
55758;SDS011;41678;52.126;20.664;2023-06-22T20:14:08;10.25;;;4.95;;
55758;SDS011;41678;52.126;20.664;2023-06-22T20:19:34;10.50;;;5.30;;
55758;SDS011;41678;52.126;20.664;2023-06-22T20:24:56;11.27;;;4.70;;
55758;SDS011;41678;52.126;20.664;2023-06-22T20:30:19;9.82;;;5.13;;
55758;SDS011;41678;52.126;20.664;2023-06-22T20:35:43;14.82;;;5.80;;
55758;SDS011;41678;52.126;20.664;2023-06-22T20:41:03;13.57;;;5.95;;
55758;SDS011;41678;52.126;20.664;2023-06-22T20:46:26;13.30;;;5.50;;
55758;SDS011;41678;52.126;20.664;2023-06-22T20:51:49;14.40;;;7.10;;
55758;SDS011;41678;52.126;20.664;2023-06-22T20:57:10;19.73;;;6.17;;
55758;SDS011;41678;52.126;20.664;2023-06-22T21:02:30;13.47;;;6.30;;
55758;SDS011;41678;52.126;20.664;2023-06-22T21:07:50;19.93;;;6.80;;
55758;SDS011;41678;52.126;20.664;2023-06-22T21:13:10;15.47;;;6.90;;
55758;SDS011;41678;52.126;20.664;2023-06-22T21:18:30;13.80;;;6.45;;
55758;SDS011;41678;52.126;20.664;2023-06-22T21:23:51;16.80;;;6.80;;
55758;SDS011;41678;52.126;20.664;2023-06-22T21:29:11;15.20;;;7.40;;
55758;SDS011;41678;52.126;20.664;2023-06-22T21:34:31;16.70;;;6.83;;
55758;SDS011;41678;52.126;20.664;2023-06-22T21:39:53;23.08;;;7.75;;
55758;SDS011;41678;52.126;20.664;2023-06-22T21:45:14;18.52;;;7.25;;
55758;SDS011;41678;52.126;20.664;2023-06-22T21:50:34;16.47;;;7.63;;
55758;SDS011;41678;52.126;20.664;2023-06-22T21:55:54;16.73;;;7.03;;
55758;SDS011;41678;52.126;20.664;2023-06-22T22:01:14;19.83;;;7.10;;
55758;SDS011;41678;52.126;20.664;2023-06-22T22:06:34;15.10;;;7.50;;
55758;SDS011;41678;52.126;20.664;2023-06-22T22:11:54;16.23;;;6.45;;
55758;SDS011;41678;52.126;20.664;2023-06-22T22:17:14;21.70;;;7.80;;
55758;SDS011;41678;52.126;20.664;2023-06-22T22:22:35;17.17;;;9.20;;
55758;SDS011;41678;52.126;20.664;2023-06-22T22:27:55;15.52;;;8.20;;
55758;SDS011;41678;52.126;20.664;2023-06-22T22:33:15;19.00;;;8.50;;
55758;SDS011;41678;52.126;20.664;2023-06-22T22:38:36;14.97;;;7.63;;
55758;SDS011;41678;52.126;20.664;2023-06-22T22:43:56;19.23;;;8.40;;
55758;SDS011;41678;52.126;20.664;2023-06-22T22:49:17;17.45;;;8.55;;
55758;SDS011;41678;52.126;20.664;2023-06-22T22:54:37;14.63;;;8.10;;
55758;SDS011;41678;52.126;20.664;2023-06-22T23:00:02;15.73;;;7.88;;
55758;SDS011;41678;52.126;20.664;2023-06-22T23:05:23;15.93;;;7.82;;
55758;SDS011;41678;52.126;20.664;2023-06-22T23:10:43;17.23;;;8.00;;
55758;SDS011;41678;52.126;20.664;2023-06-22T23:16:04;15.70;;;8.63;;
55758;SDS011;41678;52.126;20.664;2023-06-22T23:21:25;18.02;;;8.77;;
55758;SDS011;41678;52.126;20.664;2023-06-22T23:26:45;20.95;;;8.90;;
55758;SDS011;41678;52.126;20.664;2023-06-22T23:32:07;18.10;;;8.85;;
55758;SDS011;41678;52.126;20.664;2023-06-22T23:37:27;16.42;;;8.43;;
55758;SDS011;41678;52.126;20.664;2023-06-22T23:42:47;16.25;;;8.55;;
55758;SDS011;41678;52.126;20.664;2023-06-22T23:48:08;15.40;;;8.52;;
55758;SDS011;41678;52.126;20.664;2023-06-22T23:53:29;19.13;;;8.52;;
55758;SDS011;41678;52.126;20.664;2023-06-22T23:58:49;16.83;;;8.52;;
